South Nutfield, United Kingdom
Current Conditions -  °F | °C
As of 1:50 AM on Tuesday 25 Nov 2014 (Local Time) from EGKK Reporting Station
Light Fog Light Fog  
Wind Chill: 28°   Ceiling: Unl
Heat Index: 28°   Visibility: 0.93mi
Dew Point: 28°   Wind: 0mph
Humidity: 100%   Direction: NA
Pressure: 30.27"   Gusts: NA
Location:  51.02°N, 0.13°W
Report Text: EGKK 250150Z 00000KT 1500 0800W R08R/0900 BR PRFG NSC M02/M02 Q1025
Loading
Personal Weather Stations






























Interactive Weather Map New forecast layout! Learn more

10-Day Weather Forecast

Advertisements
Track Severe Weather on mobile